createdAt,value
2022-10-15T00:01:49.864Z,83.91
2022-10-15T00:04:17.947Z,83.88
2022-10-15T00:06:45.772Z,83.90
2022-10-15T00:09:13.690Z,83.98
2022-10-15T00:11:41.746Z,84.00
2022-10-15T00:14:11.456Z,84.07
2022-10-15T00:16:41.243Z,84.08
2022-10-15T00:19:10.432Z,84.21
2022-10-15T00:21:39.413Z,84.13
2022-10-15T00:24:08.267Z,84.19
2022-10-15T00:26:36.188Z,84.16
2022-10-15T00:29:04.950Z,84.17
2022-10-15T00:31:33.167Z,84.25
2022-10-15T00:34:02.733Z,84.32
2022-10-15T00:36:34.489Z,84.21
2022-10-15T00:39:04.811Z,84.20
2022-10-15T00:41:38.186Z,84.17
2022-10-15T00:44:29.469Z,84.17
2022-10-15T00:47:23.979Z,84.13
2022-10-15T00:50:08.870Z,84.07
2022-10-15T00:53:00.528Z,84.03
2022-10-15T00:55:35.039Z,84.05
2022-10-15T00:58:14.202Z,84.09
2022-10-15T01:00:42.760Z,84.15
2022-10-15T01:03:12.350Z,84.17
2022-10-15T01:05:40.805Z,84.28
2022-10-15T01:08:10.854Z,84.36
2022-10-15T01:11:04.767Z,84.41
2022-10-15T01:14:21.215Z,84.52
2022-10-15T01:17:06.793Z,84.69
2022-10-15T01:20:13.675Z,84.75
2022-10-15T01:23:08.326Z,84.76
2022-10-15T01:26:21.314Z,84.74
2022-10-15T01:29:04.942Z,84.74
2022-10-15T01:31:46.933Z,84.79
2022-10-15T01:34:25.832Z,84.79
2022-10-15T01:37:05.554Z,84.82
2022-10-15T01:39:40.542Z,84.84
2022-10-15T01:42:14.342Z,84.94
2022-10-15T01:44:52.928Z,84.93
2022-10-15T01:47:33.861Z,84.94
2022-10-15T01:50:40.971Z,85.01
2022-10-15T01:56:09.678Z,84.95
2022-10-15T01:58:41.954Z,84.99
2022-10-15T02:01:10.307Z,85.07
2022-10-15T02:03:51.284Z,85.13
2022-10-15T02:25:42.008Z,85.77
2022-10-15T02:28:20.402Z,85.75
2022-10-15T02:30:53.148Z,85.76
2022-10-15T02:33:39.483Z,85.71
2022-10-15T02:36:11.535Z,85.77
2022-10-15T02:38:43.051Z,85.79
2022-10-15T02:41:12.500Z,85.76
2022-10-15T02:43:41.906Z,85.72
2022-10-15T02:46:14.395Z,85.75
2022-10-15T02:48:43.012Z,85.70
2022-10-15T02:51:10.903Z,85.70
2022-10-15T02:53:39.430Z,85.65
2022-10-15T02:56:07.634Z,85.63
2022-10-15T02:58:35.889Z,85.56
2022-10-15T03:01:04.895Z,85.48
2022-10-15T03:03:32.468Z,85.40
2022-10-15T03:06:00.530Z,85.39
2022-10-15T03:08:29.565Z,85.36
2022-10-15T03:11:02.821Z,85.37
2022-10-15T03:13:30.910Z,85.35
2022-10-15T03:15:58.809Z,85.29
2022-10-15T03:18:26.633Z,85.28
2022-10-15T03:20:58.181Z,85.27
2022-10-15T03:23:27.376Z,85.25
2022-10-15T03:25:57.178Z,85.15
2022-10-15T03:28:25.540Z,85.13
2022-10-15T03:30:53.595Z,85.12
2022-10-15T03:33:23.163Z,85.15
2022-10-15T03:35:52.195Z,85.26
2022-10-15T03:38:20.136Z,85.35
2022-10-15T03:40:48.770Z,85.35
2022-10-15T03:43:21.775Z,85.35
2022-10-15T03:45:49.879Z,85.37
2022-10-15T03:48:20.108Z,85.41
2022-10-15T03:50:48.401Z,85.40
2022-10-15T03:53:16.480Z,85.33
2022-10-15T03:55:44.314Z,85.35
2022-10-15T03:58:12.083Z,85.30
2022-10-15T04:00:43.314Z,85.38
2022-10-15T04:03:11.512Z,85.41
2022-10-15T04:05:39.282Z,85.45
2022-10-15T04:08:08.430Z,85.46
2022-10-15T04:10:37.922Z,85.49
2022-10-15T04:13:05.622Z,85.53
2022-10-15T04:15:33.979Z,85.59
2022-10-15T04:18:03.620Z,85.68
2022-10-15T04:20:31.593Z,85.74
2022-10-15T04:23:01.445Z,85.82
2022-10-15T04:25:29.566Z,85.77
2022-10-15T04:28:03.133Z,85.73
2022-10-15T04:30:33.285Z,85.75
2022-10-15T04:33:01.710Z,85.85
2022-10-15T04:35:29.777Z,85.80
2022-10-15T04:37:59.189Z,85.81
2022-10-15T04:40:28.769Z,85.84
2022-10-15T04:42:57.287Z,85.82
2022-10-15T04:45:26.055Z,85.98
2022-10-15T04:47:56.815Z,85.95
2022-10-15T04:50:25.955Z,86.00
2022-10-15T04:53:12.292Z,86.04
2022-10-15T04:55:40.563Z,86.15
2022-10-15T04:58:09.003Z,86.30
2022-10-15T05:00:40.192Z,86.43
2022-10-15T05:03:26.592Z,86.75
2022-10-15T05:06:02.710Z,86.69
2022-10-15T05:08:35.018Z,86.43
2022-10-15T05:11:26.246Z,86.02
2022-10-15T05:13:58.548Z,85.89
2022-10-15T05:16:32.651Z,86.63
2022-10-15T05:19:08.042Z,87.41
2022-10-15T05:21:41.705Z,87.73
2022-10-15T05:24:14.752Z,88.22
2022-10-15T05:26:53.238Z,88.29
2022-10-15T05:29:21.679Z,87.33
2022-10-15T05:31:56.002Z,86.17
2022-10-15T05:34:27.798Z,85.86
2022-10-15T05:37:01.447Z,84.85
2022-10-15T05:39:34.346Z,84.05
2022-10-15T05:45:57.033Z,81.12
2022-10-15T05:48:43.433Z,79.74
2022-10-15T05:51:23.253Z,77.67
2022-10-15T05:54:03.859Z,76.42
2022-10-15T05:56:34.359Z,75.41
2022-10-15T05:59:15.483Z,74.20
2022-10-15T06:02:28.107Z,74.52
2022-10-15T06:06:03.947Z,73.12
2022-10-15T06:18:24.607Z,69.67
2022-10-15T06:20:56.288Z,68.92
2022-10-15T06:23:27.314Z,67.61
2022-10-15T06:26:07.632Z,67.78
2022-10-15T06:28:37.358Z,66.81
2022-10-15T06:31:07.443Z,66.05
2022-10-15T06:33:36.784Z,66.95
2022-10-15T06:36:10.584Z,67.10
2022-10-15T06:38:54.001Z,66.99
2022-10-15T06:41:32.872Z,66.71
2022-10-15T06:44:03.078Z,67.36
2022-10-15T06:46:30.907Z,66.72
2022-10-15T06:49:06.043Z,67.62
2022-10-15T06:51:36.965Z,67.53
2022-10-15T06:54:05.071Z,67.74
2022-10-15T06:56:33.239Z,67.26
2022-10-15T06:59:01.408Z,66.27
2022-10-15T07:01:29.503Z,66.52
2022-10-15T07:04:05.902Z,66.67
2022-10-15T07:06:46.288Z,65.68
2022-10-15T07:09:22.276Z,65.81
2022-10-15T07:12:00.091Z,65.91
2022-10-15T07:14:41.566Z,66.28
2022-10-15T07:17:14.566Z,66.00
2022-10-15T07:19:46.009Z,65.81
2022-10-15T07:22:17.144Z,64.93
2022-10-15T07:24:48.189Z,64.84
2022-10-15T07:27:19.313Z,65.99
2022-10-15T07:29:47.338Z,66.16
2022-10-15T07:32:15.889Z,66.27
2022-10-15T07:34:46.094Z,66.14
2022-10-15T07:37:16.640Z,65.83
2022-10-15T07:39:44.707Z,65.89
2022-10-15T07:42:16.638Z,66.04
2022-10-15T07:44:48.284Z,66.57
2022-10-15T07:47:17.265Z,66.66
2022-10-15T07:50:55.435Z,65.84
2022-10-15T07:53:27.047Z,66.31
2022-10-15T07:56:24.574Z,66.04
2022-10-15T07:59:03.371Z,65.95
2022-10-15T08:14:48.087Z,64.05
2022-10-15T08:17:16.273Z,63.60
2022-10-15T08:19:44.215Z,62.99
2022-10-15T08:22:12.400Z,62.01
2022-10-15T08:24:40.425Z,61.37
2022-10-15T08:27:08.408Z,61.13
2022-10-15T08:29:39.119Z,60.11
2022-10-15T08:32:07.142Z,59.05
2022-10-15T08:34:39.366Z,57.42
2022-10-15T08:37:08.793Z,56.67
2022-10-15T08:39:37.294Z,55.67
2022-10-15T08:42:16.378Z,56.27
2022-10-15T08:44:51.441Z,55.94
2022-10-15T08:47:40.830Z,54.89
2022-10-15T08:50:31.892Z,55.50
2022-10-15T08:53:00.024Z,55.20
2022-10-15T08:55:37.341Z,53.41
2022-10-15T08:58:13.548Z,53.46
2022-10-15T09:00:52.073Z,54.19
2022-10-15T09:03:51.191Z,53.59
2022-10-15T09:06:34.869Z,53.30
2022-10-15T09:09:20.272Z,53.95
2022-10-15T09:12:08.711Z,53.30
2022-10-15T09:14:41.501Z,53.97
2022-10-15T09:17:24.804Z,54.38
2022-10-15T09:19:56.027Z,54.26
2022-10-15T09:22:29.176Z,53.96
2022-10-15T09:24:57.520Z,53.41
2022-10-15T09:27:39.313Z,52.92
2022-10-15T09:30:34.577Z,52.83
2022-10-15T09:33:22.276Z,52.86
2022-10-15T09:36:30.651Z,53.16
2022-10-15T09:39:04.612Z,53.28
2022-10-15T09:42:08.468Z,53.42
2022-10-15T09:44:40.148Z,53.28
2022-10-15T09:47:27.546Z,50.42
2022-10-15T09:49:57.091Z,49.79
2022-10-15T09:52:47.254Z,50.65
2022-10-15T09:55:52.108Z,50.58
2022-10-15T09:58:45.510Z,50.82
2022-10-15T10:01:20.516Z,51.28
2022-10-15T10:04:10.347Z,51.54
2022-10-15T10:06:54.355Z,51.74
2022-10-15T10:10:05.592Z,51.88
2022-10-15T10:13:38.723Z,51.84
2022-10-15T10:16:15.927Z,51.84
2022-10-15T10:19:14.491Z,51.96
2022-10-15T10:21:50.280Z,51.01
2022-10-15T10:24:31.602Z,51.13
2022-10-15T10:27:01.504Z,50.93
2022-10-15T10:29:55.886Z,49.73
2022-10-15T10:32:40.186Z,50.22
2022-10-15T10:35:27.662Z,50.24
2022-10-15T10:38:36.355Z,50.13
2022-10-15T10:41:24.429Z,50.79
2022-10-15T10:44:12.785Z,50.29
2022-10-15T10:47:01.098Z,50.62
2022-10-15T10:49:57.902Z,50.63
2022-10-15T10:52:37.827Z,50.03
2022-10-15T10:55:18.925Z,49.68
2022-10-15T10:57:57.154Z,48.33
2022-10-15T11:00:43.365Z,48.18
2022-10-15T11:03:39.176Z,47.48
2022-10-15T11:06:24.102Z,48.48
2022-10-15T11:09:25.941Z,48.63
2022-10-15T11:12:02.176Z,48.66
2022-10-15T11:14:55.024Z,48.59
2022-10-15T11:18:22.825Z,47.11
2022-10-15T11:21:45.072Z,47.27
2022-10-15T11:35:40.876Z,46.69
2022-10-15T11:45:24.445Z,46.79
2022-10-15T11:48:24.554Z,47.30
2022-10-15T11:57:44.512Z,46.26
2022-10-15T12:00:52.744Z,46.88
2022-10-15T12:03:48.095Z,46.34
2022-10-15T12:06:25.906Z,46.65
2022-10-15T12:09:09.108Z,45.93
2022-10-15T12:15:52.870Z,46.79
2022-10-15T12:18:57.113Z,46.73
2022-10-15T12:25:00.000Z,47.13
2022-10-15T12:27:37.877Z,46.27
2022-10-15T12:30:16.037Z,46.22
2022-10-15T12:33:01.842Z,46.39
2022-10-15T12:35:41.779Z,46.12
2022-10-15T12:38:33.500Z,45.61
2022-10-15T12:42:03.640Z,45.08
2022-10-15T13:17:45.055Z,46.98
2022-10-15T13:21:47.585Z,47.17
2022-10-15T13:23:51.753Z,46.70
2022-10-15T13:26:26.886Z,46.97
2022-10-15T13:29:02.861Z,47.47
2022-10-15T13:31:36.659Z,47.13
2022-10-15T13:34:13.254Z,47.33
2022-10-15T13:36:42.263Z,47.47
2022-10-15T13:42:24.983Z,47.89
2022-10-15T13:45:03.790Z,48.08
2022-10-15T13:47:37.710Z,48.09
2022-10-15T13:50:34.622Z,48.08
2022-10-15T13:53:33.753Z,48.06
2022-10-15T13:56:35.342Z,48.31
2022-10-15T13:59:18.977Z,48.10
2022-10-15T14:01:58.852Z,48.30
2022-10-15T14:04:29.754Z,48.64
2022-10-15T14:07:08.554Z,48.80
2022-10-15T14:09:40.050Z,48.98
2022-10-15T14:12:10.671Z,49.31
2022-10-15T14:14:44.710Z,49.56
2022-10-15T14:17:25.367Z,49.79
2022-10-15T14:20:25.873Z,49.72
2022-10-15T14:22:35.763Z,49.87
2022-10-15T14:27:48.760Z,49.74
2022-10-15T14:30:27.638Z,49.90
2022-10-15T14:32:55.795Z,49.99
2022-10-15T14:35:34.683Z,49.83
2022-10-15T14:38:13.876Z,49.85
2022-10-15T14:40:49.603Z,50.09
2022-10-15T14:43:18.267Z,50.16
2022-10-15T14:46:00.606Z,50.48
2022-10-15T14:48:41.201Z,50.68
2022-10-15T14:51:23.683Z,50.53
2022-10-15T14:53:53.792Z,50.56
2022-10-15T14:56:30.254Z,50.62
2022-10-15T14:59:00.759Z,50.68
2022-10-15T15:01:39.587Z,50.82
2022-10-15T15:04:34.418Z,51.14
2022-10-15T15:07:04.960Z,51.47
2022-10-15T15:09:33.052Z,51.85
2022-10-15T15:12:03.035Z,52.13
2022-10-15T15:14:30.919Z,52.41
2022-10-15T15:16:58.719Z,52.53
2022-10-15T15:19:26.667Z,52.77
2022-10-15T15:21:55.818Z,53.72
2022-10-15T15:24:23.588Z,54.74
2022-10-15T15:26:51.474Z,55.23
2022-10-15T15:29:19.198Z,55.43
2022-10-15T15:31:48.107Z,55.68
2022-10-15T15:34:15.865Z,56.06
2022-10-15T15:36:43.943Z,56.42
2022-10-15T15:39:11.972Z,56.77
2022-10-15T15:41:39.772Z,57.21
2022-10-15T15:44:24.214Z,57.55
2022-10-15T15:46:53.942Z,58.07
2022-10-15T15:49:21.840Z,58.43
2022-10-15T15:51:52.818Z,58.73
2022-10-15T15:54:20.611Z,59.16
2022-10-15T15:56:51.330Z,59.54
2022-10-15T15:59:19.160Z,60.00
2022-10-15T16:01:47.294Z,60.37
2022-10-15T16:04:16.886Z,60.72
2022-10-15T16:06:50.151Z,61.01
2022-10-15T16:09:21.490Z,61.35
2022-10-15T16:11:52.426Z,61.62
2022-10-15T16:14:20.137Z,61.99
2022-10-15T16:16:48.052Z,62.37
2022-10-15T16:19:15.814Z,62.86
2022-10-15T16:24:23.404Z,63.75
2022-10-15T16:26:51.608Z,63.87
2022-10-15T16:29:19.532Z,64.16
2022-10-15T16:31:49.230Z,64.35
2022-10-15T16:34:21.686Z,64.49
2022-10-15T16:36:49.697Z,64.86
2022-10-15T16:39:17.925Z,65.12
2022-10-15T16:41:45.450Z,65.54
2022-10-15T16:44:13.183Z,66.30
2022-10-15T16:46:41.253Z,66.83
2022-10-15T16:49:09.244Z,67.42
2022-10-15T16:51:39.856Z,67.75
2022-10-15T16:54:07.361Z,67.97
2022-10-15T16:56:35.142Z,68.33
2022-10-15T16:59:02.913Z,68.55
2022-10-15T17:01:30.695Z,68.75
2022-10-15T17:04:00.092Z,68.90
2022-10-15T17:06:30.510Z,69.16
2022-10-15T17:09:04.635Z,69.23
2022-10-15T17:11:40.642Z,69.46
2022-10-15T17:14:11.670Z,69.84
2022-10-15T17:16:53.409Z,70.02
2022-10-15T17:19:35.981Z,70.31
2022-10-15T18:48:17.041Z,76.11
2022-10-15T19:02:25.801Z,76.57
2022-10-15T19:04:57.548Z,76.67
2022-10-15T19:07:31.691Z,76.74
2022-10-15T19:10:11.386Z,76.88
2022-10-15T19:12:44.033Z,76.86
2022-10-15T19:15:12.247Z,76.87
2022-10-15T19:20:46.859Z,76.92
2022-10-15T19:26:39.148Z,76.85
2022-10-15T19:29:09.639Z,76.95
2022-10-15T19:31:41.064Z,76.99
2022-10-15T19:34:13.062Z,77.13
2022-10-15T19:36:47.754Z,77.17
2022-10-15T19:39:20.775Z,77.29
2022-10-15T19:41:51.713Z,77.36
2022-10-15T19:44:27.053Z,77.46
2022-10-15T19:46:59.759Z,77.54
2022-10-15T19:52:30.997Z,77.66
2022-10-15T19:55:21.075Z,77.84
2022-10-15T19:57:51.042Z,77.89
2022-10-15T20:00:21.383Z,78.01
2022-10-15T20:02:52.920Z,78.06
2022-10-15T20:05:28.673Z,78.11
2022-10-15T20:08:00.882Z,78.24
2022-10-15T20:10:28.901Z,78.31
2022-10-15T20:12:59.432Z,78.45
2022-10-15T20:15:33.758Z,78.45
2022-10-15T20:18:03.645Z,78.52
2022-10-15T20:20:36.674Z,78.52
2022-10-15T20:23:09.610Z,78.64
2022-10-15T20:25:42.978Z,78.68
2022-10-15T20:28:13.663Z,78.75
2022-10-15T20:30:44.989Z,78.81
2022-10-15T20:33:15.101Z,78.86
2022-10-15T20:35:42.911Z,78.88
2022-10-15T20:38:11.933Z,79.00
2022-10-15T20:40:40.956Z,79.00
2022-10-15T20:43:09.626Z,79.08
2022-10-15T20:45:44.644Z,79.16
2022-10-15T20:48:21.945Z,79.22
2022-10-15T20:50:58.582Z,79.30
2022-10-15T20:53:27.221Z,79.51
2022-10-15T20:56:01.085Z,79.55
2022-10-15T20:58:44.348Z,79.56
2022-10-15T21:01:33.871Z,79.62
2022-10-15T21:04:06.526Z,79.59
2022-10-15T21:06:35.066Z,79.62
2022-10-15T21:09:12.999Z,79.68
2022-10-15T21:11:47.513Z,79.57
2022-10-15T21:14:16.011Z,79.77
2022-10-15T21:16:43.936Z,79.67
2022-10-15T21:19:16.999Z,79.70
2022-10-15T21:21:55.397Z,79.73
2022-10-15T21:24:42.888Z,79.77
2022-10-15T21:27:27.512Z,79.78
2022-10-15T21:29:58.034Z,79.84
2022-10-15T21:35:14.561Z,80.06
2022-10-15T21:37:43.829Z,80.08
2022-10-15T21:43:44.701Z,80.29
2022-10-15T21:46:14.106Z,80.30
2022-10-15T21:48:43.435Z,80.28
2022-10-15T21:51:14.860Z,80.27
2022-10-15T21:53:43.590Z,80.29
2022-10-15T21:56:12.053Z,80.29
2022-10-15T21:58:41.133Z,80.27
2022-10-15T22:01:24.550Z,80.29
2022-10-15T22:04:03.474Z,80.27
2022-10-15T22:06:32.432Z,80.42
2022-10-15T22:09:02.185Z,80.45
2022-10-15T22:11:35.081Z,80.49
2022-10-15T22:14:09.402Z,80.46
2022-10-15T22:17:25.916Z,80.50
2022-10-15T22:20:14.535Z,80.58
2022-10-15T22:22:45.928Z,80.70
2022-10-15T22:25:14.029Z,80.80
2022-10-15T22:27:42.235Z,80.92
2022-10-15T22:30:10.683Z,81.00
2022-10-15T23:20:20.773Z,81.61
2022-10-15T23:22:51.149Z,81.62
2022-10-15T23:25:24.495Z,81.67
2022-10-15T23:27:57.439Z,81.71
2022-10-15T23:30:29.385Z,81.75
2022-10-15T23:32:57.590Z,81.81
2022-10-15T23:35:25.521Z,81.84
2022-10-15T23:37:53.705Z,82.00
2022-10-15T23:40:21.610Z,82.07
2022-10-15T23:46:22.285Z,82.20
2022-10-15T23:49:27.102Z,82.25
2022-10-15T23:55:57.221Z,82.40
